Albion, CA

12:43 PM PDT on April 24, 2017 (GMT -0700)
Albion Ridge Rd between F and G | | Change Station

Elev 545 ft 39.23 °N, 123.74 °W | Updated 3 minutes ago

Overcast
Overcast
54.5 °F
Feels Like 54.5 °F
N
0.0
Wind Variable Wind from South
Gusts 5.0 mph

Today
High -- | Low -- °F
--% Chance of Precip.
Yesterday
High -- | Low -- °F
Precip. -- in
Pressure 30.03 in
Visibility 10.0 miles
Clouds Few 2000 ft
Mostly Cloudy 3300 ft
Overcast 5000 ft
Dew Point 48 °F
Humidity 80%
Rainfall 0.25 in
Snow Depth Not available.
6:25 AM 8:01 PM
Waning Crescent, 4% visible
SPECI KUKI 241927Z AUTO 28007KT 230V320 10SM FEW020 BKN033 OVC050 14/11 A3003 RMK AO2 T01440106
Pressure 30.03 in
Visibility 10.0 miles
Clouds Few 2000 ft
Mostly Cloudy 3300 ft
Overcast 5000 ft
Dew Point 48 °F
Humidity 80%
Rainfall 0.25 in
Snow Depth Not available.
6:25 AM 8:01 PM
Waning Crescent, 4% visible
SPECI KUKI 241927Z AUTO 28007KT 230V320 10SM FEW020 BKN033 OVC050 14/11 A3003 RMK AO2 T01440106

Get Severe Weather Alerts

Thanks for signing up!

Be on the lookout for a verification email in your inbox.

You'll start receiving the daily forecast at 8 AM.

×

10-Day Weather Forecast

Almanac

Astronomy

Apr. 24, 2017 Rise Set
Actual Time
Civil Twilight
Nautical Twilight
Astronomical Twilight
Moon
Length of Visible Light
Length of Day
Tomorrow will be .
, % of the Moon is Illuminated

Today's Extremes

State Highs State Lows

Community

WunderPhotos

WunderBlog® & News

Nearby

Air Quality

  Air Quality AQ Index Pollutant
Not available.

Snow Depth

Station Depth Elevation

Earthquake Activity

City Distance Mag. Time & Date
Minimum magnitude displayed is 2.5.

Coastal Water Temperatures

Place Temperature

Stations

Nearby Weather Stations

Station Location Temp. Windchill Dew Point Humidity Wind Precip. Elev Updated Type
                   

Watches & Warnings

There are currently no watches in effect.